DW2956 Weather Reports


Display with metric or nautical units.
time (UTC)temp
F
wind
direction
speed
MPH
gust
MPH
rain 1hr
in
rain 24hr
in
rain mn
in
humidity
%
barometer
mb
20200707025603 80 117 0.0 1.0 0.00 0.00 0.00 100 1016.6
20200707025104 81 133 0.0 1.0 0.00 0.00 0.00 100 1016.3
20200707024603 81 60 0.0 1.0 0.00 0.00 0.00 100 1016.3
20200707023603 81 38 1.0 2.0 0.00 0.00 0.00 100 1016.0
20200707023103 81 13 2.0 5.0 0.00 0.00 0.00 100 1016.1
20200707022603 81 16 4.0 6.0 0.00 0.00 0.00 100 1015.9
20200707021602 82 35 3.0 5.0 0.00 0.00 0.00 100 1015.9
20200707021103 82 42 3.0 5.0 0.00 0.00 0.00 100 1015.9
20200707020603 82 18 2.0 5.0 0.00 0.00 0.00 100 1015.9
20200707015603 83 20 2.0 5.0 0.00 0.00 0.00 100 1015.9
20200707015103 84 16 3.0 5.0 0.00 0.00 0.00 100 1015.9
20200707014603 84 1 3.0 5.0 0.00 0.00 0.00 100 1015.9
20200707013103 84 14 2.0 5.0 0.00 0.00 0.00 100 1015.9
20200707012603 85 13 3.0 5.0 0.00 0.00 0.00 100 1015.9
20200707012105 85 8 3.0 5.0 0.00 0.00 0.00 100 1015.9
20200707011604 85 9 3.0 5.0 0.00 0.00 0.00 100 1015.9
20200707011107 85 12 3.0 5.0 0.00 0.00 0.00 100 1015.9
20200707010603 86 22 3.0 5.0 0.00 0.00 0.00 100 1015.9
20200707005603 88 8 2.0 5.0 0.00 0.00 0.00 100 1015.9
20200707004606 89 3 3.0 5.0 0.00 0.00 0.00 100 1015.9
20200707004103 90 85 1.0 2.0 0.00 0.00 0.00 100 1015.9
20200707003603 90 282 2.0 5.0 0.00 0.00 0.00 100 1015.9
20200707003103 90 332 2.0 2.0 0.00 0.00 0.00 100 1015.9
20200707002603 90 283 2.0 5.0 0.00 0.00 0.00 100 1015.9
20200707002105 90 283 3.0 5.0 0.00 0.00 0.00 100 1015.9
20200707001603 90 334 3.0 5.0 0.00 0.00 0.00 100 1015.9
20200707000602 89 344 5.0 6.0 0.00 0.00 0.00 100 1015.9
20200707000103 90 350 3.0 6.0 0.00 0.00 0.00 100 1015.9
20200706235602 90 352 5.0 6.0 0.00 0.00 0.00 100 1015.9
20200706235102 90 307 3.0 5.0 0.00 0.00 0.00 100 1015.9
20200706233603 90 337 5.0 7.0 0.00 0.00 0.00 100 1015.9
20200706232603 91 341 5.0 6.0 0.00 0.00 0.00 100 1015.9
20200706231607 91 5 5.0 6.0 0.00 0.00 0.00 100 1015.9
20200706230603 95 103 3.0 5.0 0.00 0.00 0.00 100 1015.9
20200706225603 93 66 3.0 6.0 0.00 0.00 0.00 100 1015.9
20200706225102 92 6 3.0 6.0 0.00 0.00 0.00 100 1015.9
20200706223603 95 245 2.0 5.0 0.00 0.00 0.00 100 1015.9
20200706222606 92 112 2.0 5.0 0.00 0.00 0.00 100 1016.3
20200706221605 93 130 3.0 5.0 0.00 0.00 0.00 100 1016.3
20200706221103 95 199 2.0 5.0 0.00 0.00 0.00 100 1016.3
20200706220103 93 116 2.0 5.0 0.00 0.00 0.00 100 1016.3
20200706215607 93 108 5.0 7.0 0.00 0.00 0.00 100 1016.3
20200706214603 95 140 3.0 5.0 0.00 0.00 0.00 100 1016.3
20200706214103 96 170 3.0 6.0 0.00 0.00 0.00 100 1016.3
20200706212603 95 49 3.0 5.0 0.00 0.00 0.00 100 1016.3
20200706212103 93 20 3.0 5.0 0.00 0.00 0.00 100 1016.3
20200706211602 93 13 5.0 6.0 0.00 0.00 0.00 100 1016.3
20200706205603 97 150 3.0 5.0 0.00 0.00 0.00 100 1016.3
20200706203604 93 40 4.0 8.0 0.00 0.00 0.00 100 1016.3
20200706202605 94 12 5.0 7.0 0.00 0.00 0.00 100 1016.3
20200706201103 93 358 6.0 8.0 0.00 0.00 0.00 100 1016.6
20200706200603 91 346 7.0 13.0 0.00 0.00 0.00 100 1016.6
20200706195103 91 346 8.0 12.0 0.00 0.00 0.00 100 1016.6
20200706194603 91 350 9.0 12.0 0.00 0.00 0.00 100 1016.6
20200706191603 94 33 3.0 7.0 0.00 0.00 0.00 100 1017.2
20200706190103 93 13 3.0 8.0 0.00 0.00 0.00 100 1017.3
20200706185603 93 26 5.0 7.0 0.00 0.00 0.00 100 1017.6
20200706185104 91 355 7.0 14.0 0.00 0.00 0.00 100 1017.5
20200706184603 91 0 5.0 14.0 0.00 0.00 0.00 100 1017.6
20200706184103 91 0 8.0 14.0 0.00 0.00 0.00 100 1017.6
20200706183603 91 23 6.0 9.0 0.00 0.00 0.00 100 1017.6
20200706183103 93 16 3.0 6.0 0.00 0.00 0.00 100 1017.6
20200706182104 92 333 4.0 9.0 0.00 0.00 0.00 100 1017.6
20200706181103 90 8 8.0 12.0 0.00 0.00 0.00 100 1017.6
20200706180603 88 329 8.0 12.0 0.00 0.00 0.00 100 1017.9
20200706180103 89 335 7.0 13.0 0.00 0.00 0.00 100 1017.9
20200706174603 89 11 6.0 8.0 0.00 0.00 0.00 100 1017.9
20200706174105 90 4 6.0 7.0 0.00 0.00 0.00 100 1017.9
20200706173103 88 341 9.0 12.0 0.00 0.00 0.00 100 1017.9
20200706172607 89 341 5.0 8.0 0.00 0.00 0.00 100 1017.9
20200706172103 89 358 8.0 13.0 0.00 0.00 0.00 100 1017.9
20200706170603 91 16 5.0 9.0 0.00 0.00 0.00 100 1017.9
20200706163603 89 4 5.0 9.0 0.00 0.00 0.00 97 1017.9
20200706162103 90 19 3.0 7.0 0.00 0.00 0.00 82 1017.9
20200706160103 92 60 3.0 5.0 0.00 0.00 0.00 62 1017.9
20200706155603 91 73 2.0 5.0 0.00 0.00 0.00 57 1017.9
20200706155103 86 342 3.0 5.0 0.00 0.00 0.00 77 1017.9
20200706154605 87 74 3.0 6.0 0.00 0.00 0.00 62 1017.9
20200706153604 89 19 5.0 6.0 0.00 0.00 0.00 42 1017.9
20200706153103 88 172 4.0 6.0 0.00 0.00 0.00 42 1017.9
20200706152603 90 126 3.0 6.0 0.00 0.00 0.00 43 1017.9
20200706150106 89 120 3.0 5.0 0.00 0.00 0.00 39 1017.9
20200706145605 88 218 2.0 5.0 0.00 0.00 0.00 42 1017.9
20200706145103 87 33 3.0 5.0 0.00 0.00 0.00 45 1017.9
20200706144603 87 123 2.0 5.0 0.00 0.00 0.00 58 1017.9
20200706143603 88 18 2.0 5.0 0.00 0.00 0.00 34 1017.9
20200706143103 88 127 2.0 5.0 0.00 0.00 0.00 36 1017.9
20200706142104 86 87 2.0 5.0 0.00 0.00 0.00 32 1017.9
20200706141606 85 122 3.0 5.0 0.00 0.00 0.00 31 1017.9
20200706141104 85 75 3.0 5.0 0.00 0.00 0.00 41 1017.9
20200706140603 86 112 2.0 5.0 0.00 0.00 0.00 39 1017.9
20200706140103 87 49 1.0 5.0 0.00 0.00 0.00 35 1017.6
20200706135603 86 110 1.0 5.0 0.00 0.00 0.00 32 1017.6
20200706135104 85 77 1.0 2.0 0.00 0.00 0.00 38 1017.6
20200706134607 86 125 2.0 2.0 0.00 0.00 0.00 35 1017.6
20200706134103 84 101 2.0 5.0 0.00 0.00 0.00 31 1017.6
20200706133103 84 84 1.0 2.0 0.00 0.00 0.00 30 1017.6
20200706132103 83 43 2.0 2.0 0.00 0.00 0.00 26 1017.3
20200706131103 82 50 1.0 2.0 0.00 0.00 0.00 20 1017.3
20200706130603 81 76 1.0 1.0 0.00 0.00 0.00 19 1017.1
20200706125103 79 103 1.0 5.0 0.00 0.00 0.00 20 1016.9
20200706124103 77 104 2.0 5.0 0.00 0.00 0.00 20 1017.3
20200706123104 75 130 5.0 6.0 0.00 0.00 0.00 18 1016.9
20200706122603 76 126 4.0 5.0 0.00 0.00 0.00 20 1016.9
20200706121604 76 122 2.0 5.0 0.00 0.00 0.00 18 1016.9
20200706121104 76 90 1.0 5.0 0.00 0.00 0.00 21 1016.9
20200706120603 77 110 2.0 5.0 0.00 0.00 0.00 20 1016.9
20200706120103 77 65 0.0 2.0 0.00 0.00 0.00 20 1016.9
20200706115103 78 90 0.0 0.0 0.00 0.00 0.00 23 1016.6
20200706114603 77 90 0.0 0.0 0.00 0.00 0.00 22 1016.6
20200706114103 76 90 0.0 0.0 0.00 0.00 0.00 23 1016.6
20200706113603 75 89 0.0 2.0 0.00 0.00 0.00 18 1016.6
20200706112104 74 115 2.0 2.0 0.00 0.00 0.00 16 1016.3
20200706111605 73 118 2.0 2.0 0.00 0.00 0.00 15 1016.3
20200706111104 72 112 1.0 1.0 0.00 0.00 0.00 14 1016.3
20200706110604 72 131 0.0 1.0 0.00 0.00 0.00 13 1016.3
20200706110106 72 141 0.0 1.0 0.00 0.00 0.00 13 1016.3
20200706105603 72 90 0.0 0.0 0.00 0.00 0.00 14 1016.3
20200706105104 72 78 0.0 1.0 0.00 0.00 0.00 15 1016.3
20200706104103 72 108 0.0 1.0 0.00 0.00 0.00 35 1016.3
20200706103603 72 98 0.0 2.0 0.00 0.00 0.00 30 1016.3
20200706102603 72 83 0.0 1.0 0.00 0.00 0.00 32 1016.0
20200706102103 73 100 0.0 2.0 0.00 0.00 0.00 33 1015.9
20200706101605 73 85 0.0 2.0 0.00 0.00 0.00 35 1015.9
20200706101103 73 96 0.0 1.0 0.00 0.00 0.00 35 1015.9
20200706095606 73 24 0.0 1.0 0.00 0.00 0.00 39 1015.9
20200706095104 73 90 0.0 2.0 0.00 0.00 0.00 36 1015.6
20200706094603 73 329 1.0 1.0 0.00 0.00 0.00 38 1015.6
20200706094106 73 14 0.0 1.0 0.00 0.00 0.00 36 1015.9
20200706093604 73 13 1.0 2.0 0.00 0.00 0.00 38 1015.6
20200706093103 73 12 2.0 2.0 0.00 0.00 0.00 33 1015.6
20200706092603 73 354 1.0 2.0 0.00 0.00 0.00 46 1015.6
20200706091605 73 6 2.0 2.0 0.00 0.00 0.00 49 1015.6
20200706090104 74 357 2.0 2.0 0.00 0.00 0.00 51 1015.6
20200706085603 74 7 1.0 2.0 0.00 0.00 0.00 77 1015.6
20200706085104 74 1 2.0 5.0 0.00 0.00 0.00 94 1015.5
20200706083605 74 325 2.0 2.0 0.00 0.00 0.00 84 1015.6
20200706083103 74 3 1.0 2.0 0.00 0.00 0.00 90 1015.6
20200706082104 74 24 2.0 5.0 0.00 0.00 0.00 95 1015.6
20200706081604 74 5 3.0 5.0 0.00 0.00 0.00 100 1015.6
20200706081107 74 12 2.0 5.0 0.00 0.00 0.00 100 1015.6
20200706080603 74 0 3.0 5.0 0.00 0.00 0.00 100 1015.6
20200706075603 74 4 3.0 5.0 0.00 0.00 0.00 100 1015.6
20200706075103 74 347 2.0 5.0 0.00 0.00 0.00 99 1015.6
20200706074604 75 316 3.0 5.0 0.00 0.00 0.00 100 1015.6
20200706073606 75 344 3.0 5.0 0.00 0.00 0.00 100 1015.6
20200706073103 75 336 3.0 5.0 0.00 0.00 0.00 100 1015.9
20200706072603 75 344 3.0 5.0 0.00 0.00 0.00 86 1015.9
20200706072104 75 343 4.0 5.0 0.00 0.00 0.00 87 1015.9
20200706071604 75 340 5.0 5.0 0.00 0.00 0.00 76 1015.9
20200706071104 75 349 5.0 5.0 0.00 0.00 0.00 70 1015.9
20200706070604 75 344 3.0 5.0 0.00 0.00 0.00 74 1015.9
20200706065103 76 352 5.0 6.0 0.00 0.00 0.00 89 1015.9
20200706064604 76 353 3.0 6.0 0.00 0.00 0.00 81 1015.9
20200706064104 76 349 5.0 6.0 0.00 0.00 0.00 71 1015.9
20200706063105 76 356 5.0 5.0 0.00 0.00 0.00 100 1015.9
20200706062604 76 306 3.0 5.0 0.00 0.00 0.00 100 1015.9
20200706061103 76 312 2.0 5.0 0.00 0.00 0.00 100 1015.9
20200706060606 75 291 3.0 5.0 0.00 0.00 0.00 100 1016.3
20200706055604 76 279 3.0 5.0 0.00 0.00 0.00 100 1016.3
20200706055103 76 276 5.0 6.0 0.00 0.00 0.00 100 1016.3
20200706054604 76 288 5.0 6.0 0.00 0.00 0.00 100 1015.9
20200706054103 77 296 5.0 7.0 0.00 0.00 0.00 100 1016.0
20200706053105 77 275 5.0 7.0 0.00 0.00 0.00 100 1015.9
20200706052604 77 308 5.0 7.0 0.00 0.00 0.00 96 1015.9
20200706052103 77 308 6.0 8.0 0.00 0.00 0.00 90 1015.9
20200706051603 77 312 7.0 9.0 0.00 0.00 0.00 85 1015.9
20200706051103 77 347 6.0 12.0 0.00 0.00 0.00 87 1016.0
20200706050603 77 317 6.0 8.0 0.00 0.00 0.00 83 1016.3
20200706045105 77 285 5.0 6.0 0.00 0.00 0.00 100 1016.2
20200706044603 77 328 5.0 7.0 0.00 0.00 0.00 99 1015.9
20200706044103 77 315 4.0 6.0 0.00 0.00 0.00 100 1015.9
20200706043603 77 301 5.0 7.0 0.00 0.00 0.00 100 1015.9
20200706043103 77 291 5.0 6.0 0.00 0.00 0.00 96 1015.9
20200706042603 78 315 5.0 6.0 0.00 0.00 0.00 97 1015.9
20200706040105 78 298 5.0 6.0 0.00 0.00 0.00 77 1015.9
20200706035603 78 335 5.0 7.0 0.00 0.00 0.00 76 1015.9
20200706035104 78 306 5.0 7.0 0.00 0.00 0.00 70 1015.9
20200706034603 78 329 5.0 6.0 0.00 0.00 0.00 69 1015.9
20200706034103 78 312 5.0 6.0 0.00 0.00 0.00 78 1015.9
20200706033604 78 296 5.0 8.0 0.00 0.00 0.00 73 1015.9
20200706033103 79 297 5.0 8.0 0.00 0.00 0.00 79 1015.9
20200706032604 79 329 5.0 6.0 0.00 0.00 0.00 74 1015.9
20200706032104 79 309 5.0 6.0 0.00 0.00 0.00 79 1015.9
20200706030603 79 300 5.0 6.0 0.00 0.00 0.00 91 1015.9
20200706030104 79 300 5.0 8.0 0.00 0.00 0.00 97 1015.9